createdAt,value
2023-04-23T00:01:26.182Z,100407.85
2023-04-23T00:03:57.915Z,100412.18
2023-04-23T00:06:26.235Z,100416.04
2023-04-23T00:08:53.522Z,100420.62
2023-04-23T00:11:21.234Z,100421.80
2023-04-23T00:13:48.899Z,100423.99
2023-04-23T00:16:15.827Z,100424.09
2023-04-23T00:18:42.748Z,100425.70
2023-04-23T00:21:10.091Z,100426.77
2023-04-23T00:23:37.927Z,100424.86
2023-04-23T00:26:04.987Z,100426.42
2023-04-23T00:28:31.766Z,100429.55
2023-04-23T00:30:58.555Z,100427.67
2023-04-23T00:33:26.264Z,100428.46
2023-04-23T00:35:52.973Z,100428.05
2023-04-23T00:38:20.714Z,100426.23
2023-04-23T00:40:47.431Z,100431.08
2023-04-23T00:43:15.100Z,100429.65
2023-04-23T00:45:41.903Z,100429.60
2023-04-23T00:48:08.636Z,100426.39
2023-04-23T00:50:35.402Z,100428.20
2023-04-23T00:53:02.436Z,100431.02
2023-04-23T00:55:29.407Z,100431.09
2023-04-23T00:57:56.111Z,100430.34
2023-04-23T01:00:22.851Z,100430.77
2023-04-23T01:02:50.021Z,100430.30
2023-04-23T01:05:17.261Z,100431.89
2023-04-23T01:07:44.865Z,100432.92
2023-04-23T01:10:11.697Z,100433.42
2023-04-23T01:12:38.894Z,100435.13
2023-04-23T01:15:08.107Z,100431.78
2023-04-23T01:17:34.927Z,100434.87
2023-04-23T01:20:01.692Z,100434.13
2023-04-23T01:22:28.856Z,100435.38
2023-04-23T01:24:55.700Z,100434.63
2023-04-23T01:27:24.282Z,100432.77
2023-04-23T01:29:50.914Z,100436.48
2023-04-23T01:32:18.253Z,100436.88
2023-04-23T01:34:46.235Z,100439.13
2023-04-23T01:37:13.031Z,100438.23
2023-04-23T01:39:39.870Z,100438.01
2023-04-23T01:42:06.752Z,100437.58
2023-04-23T01:44:33.518Z,100436.35
2023-04-23T01:47:00.266Z,100439.92
2023-04-23T01:49:27.131Z,100440.18
2023-04-23T01:51:53.854Z,100439.71
2023-04-23T01:54:20.691Z,100441.13
2023-04-23T01:56:54.059Z,100443.91
2023-04-23T01:59:22.199Z,100442.77
2023-04-23T02:01:49.075Z,100443.86
2023-04-23T02:04:17.153Z,100438.09
2023-04-23T02:06:46.419Z,100439.59
2023-04-23T02:09:13.195Z,100441.55
2023-04-23T02:11:40.044Z,100438.41
2023-04-23T02:14:07.086Z,100439.73
2023-04-23T02:16:34.574Z,100441.30
2023-04-23T02:19:01.287Z,100443.15
2023-04-23T02:21:27.978Z,100443.08
2023-04-23T02:23:54.781Z,100445.98
2023-04-23T02:26:22.227Z,100450.42
2023-04-23T02:28:48.973Z,100448.84
2023-04-23T02:31:16.030Z,100448.52
2023-04-23T02:33:43.779Z,100447.50
2023-04-23T02:36:11.764Z,100449.67
2023-04-23T02:38:41.708Z,100452.23
2023-04-23T02:41:08.648Z,100454.37
2023-04-23T02:43:35.918Z,100457.91
2023-04-23T02:46:07.748Z,100460.48
2023-04-23T02:48:41.934Z,100457.69
2023-04-23T02:51:09.795Z,100458.50
2023-04-23T02:53:36.584Z,100463.05
2023-04-23T02:56:03.474Z,100464.13
2023-04-23T02:58:30.707Z,100467.43
2023-04-23T03:00:58.721Z,100463.91
2023-04-23T03:03:31.105Z,100463.25
2023-04-23T03:05:58.542Z,100466.66
2023-04-23T03:08:25.170Z,100467.95
2023-04-23T03:10:51.820Z,100468.10
2023-04-23T03:13:18.623Z,100472.68
2023-04-23T03:15:45.291Z,100469.35
2023-04-23T03:18:12.058Z,100475.14
2023-04-23T03:20:38.957Z,100479.13
2023-04-23T03:23:08.630Z,100481.80
2023-04-23T03:25:35.581Z,100485.70
2023-04-23T03:28:02.490Z,100483.11
2023-04-23T03:30:29.742Z,100482.08
2023-04-23T03:32:56.922Z,100484.92
2023-04-23T03:35:24.334Z,100487.15
2023-04-23T03:37:51.854Z,100489.48
2023-04-23T03:40:19.277Z,100490.60
2023-04-23T03:42:47.591Z,100495.08
2023-04-23T03:45:16.087Z,100496.52
2023-04-23T03:47:43.317Z,100497.77
2023-04-23T03:50:12.241Z,100499.00
2023-04-23T03:52:39.649Z,100500.83
2023-04-23T03:55:08.052Z,100501.67
2023-04-23T03:57:42.179Z,100502.95
2023-04-23T04:00:18.715Z,100506.88
2023-04-23T04:02:45.845Z,100509.23
2023-04-23T04:05:13.236Z,100511.04
2023-04-23T04:07:40.695Z,100512.23
2023-04-23T04:10:07.648Z,100512.70
2023-04-23T04:12:35.877Z,100517.73
2023-04-23T04:15:03.426Z,100515.18
2023-04-23T04:17:30.679Z,100517.50
2023-04-23T04:19:57.367Z,100522.92
2023-04-23T04:22:24.168Z,100525.98
2023-04-23T04:24:52.048Z,100525.77
2023-04-23T04:27:18.743Z,100527.86
2023-04-23T04:29:45.613Z,100529.01
2023-04-23T04:32:12.994Z,100529.85
2023-04-23T04:34:40.012Z,100533.79
2023-04-23T04:37:07.125Z,100535.37
2023-04-23T04:39:34.297Z,100537.44
2023-04-23T04:42:02.354Z,100540.91
2023-04-23T04:44:30.092Z,100542.48
2023-04-23T04:46:56.967Z,100545.39
2023-04-23T04:49:23.671Z,100547.31
2023-04-23T04:51:50.753Z,100549.61
2023-04-23T04:54:17.524Z,100552.99
2023-04-23T04:56:44.203Z,100554.23
2023-04-23T04:59:11.125Z,100556.16
2023-04-23T05:01:37.885Z,100557.59
2023-04-23T05:04:05.088Z,100561.09
2023-04-23T05:06:32.532Z,100559.15
2023-04-23T05:08:59.413Z,100561.07
2023-04-23T05:11:26.002Z,100561.71
2023-04-23T05:13:52.706Z,100563.27
2023-04-23T05:16:19.483Z,100565.05
2023-04-23T05:18:46.182Z,100569.66
2023-04-23T05:21:14.949Z,100572.42
2023-04-23T05:23:41.602Z,100576.17
2023-04-23T05:26:08.284Z,100579.17
2023-04-23T05:28:35.507Z,100579.40
2023-04-23T05:31:02.653Z,100584.13
2023-04-23T05:33:33.546Z,100584.95
2023-04-23T05:36:07.652Z,100586.97
2023-04-23T05:38:34.382Z,100588.17
2023-04-23T05:41:01.209Z,100588.64
2023-04-23T05:43:27.908Z,100588.88
2023-04-23T05:45:54.738Z,100593.06
2023-04-23T05:48:21.406Z,100590.88
2023-04-23T05:50:49.050Z,100588.61
2023-04-23T05:53:15.761Z,100591.55
2023-04-23T05:55:42.529Z,100589.09
2023-04-23T05:58:09.218Z,100593.35
2023-04-23T06:00:36.837Z,100593.94
2023-04-23T06:03:03.873Z,100599.81
2023-04-23T06:05:31.452Z,100603.09
2023-04-23T06:07:58.251Z,100604.52
2023-04-23T06:10:24.810Z,100607.55
2023-04-23T06:12:53.567Z,100610.47
2023-04-23T06:15:20.362Z,100608.11
2023-04-23T06:17:47.147Z,100608.66
2023-04-23T06:20:13.933Z,100610.20
2023-04-23T06:22:40.715Z,100613.20
2023-04-23T06:25:07.938Z,100613.52
2023-04-23T06:27:34.835Z,100616.42
2023-04-23T06:30:06.770Z,100613.83
2023-04-23T06:32:34.021Z,100614.59
2023-04-23T06:35:02.300Z,100617.87
2023-04-23T06:37:31.080Z,100622.03
2023-04-23T06:39:58.821Z,100618.86
2023-04-23T06:42:25.549Z,100619.67
2023-04-23T06:45:19.268Z,100621.48
2023-04-23T06:47:46.178Z,100623.75
2023-04-23T06:50:12.845Z,100621.67
2023-04-23T06:52:40.434Z,100623.95
2023-04-23T06:55:07.909Z,100624.07
2023-04-23T06:57:35.690Z,100624.55
2023-04-23T07:00:03.048Z,100623.41
2023-04-23T07:02:34.346Z,100626.32
2023-04-23T07:05:01.013Z,100625.88
2023-04-23T07:07:28.170Z,100627.77
2023-04-23T07:09:54.986Z,100628.42
2023-04-23T07:12:21.596Z,100627.31
2023-04-23T07:14:48.286Z,100626.79
2023-04-23T07:17:15.111Z,100631.86
2023-04-23T07:19:41.794Z,100632.88
2023-04-23T07:22:08.452Z,100635.22
2023-04-23T07:24:35.187Z,100633.56
2023-04-23T07:27:02.211Z,100636.42
2023-04-23T07:29:28.971Z,100633.66
2023-04-23T07:31:56.023Z,100639.80
2023-04-23T07:34:22.967Z,100637.44
2023-04-23T07:36:49.910Z,100635.73
2023-04-23T07:39:16.756Z,100634.02
2023-04-23T07:41:43.532Z,100634.55
2023-04-23T07:44:10.355Z,100639.23
2023-04-23T07:46:37.010Z,100636.98
2023-04-23T07:49:04.098Z,100639.63
2023-04-23T07:51:31.392Z,100637.72
2023-04-23T07:53:58.402Z,100637.56
2023-04-23T07:56:25.243Z,100637.27
2023-04-23T07:58:53.362Z,100634.27
2023-04-23T08:01:21.187Z,100634.49
2023-04-23T08:03:48.110Z,100635.58
2023-04-23T08:06:14.990Z,100634.12
2023-04-23T08:08:41.909Z,100633.36
2023-04-23T08:11:08.702Z,100632.64
2023-04-23T08:13:35.542Z,100629.59
2023-04-23T08:16:02.362Z,100622.15
2023-04-23T08:18:29.206Z,100621.88
2023-04-23T08:20:56.883Z,100618.18
2023-04-23T08:23:23.908Z,100618.30
2023-04-23T08:25:50.741Z,100618.34
2023-04-23T08:28:18.662Z,100619.09
2023-04-23T08:30:45.970Z,100619.77
2023-04-23T08:33:13.229Z,100615.98
2023-04-23T08:35:39.945Z,100613.83
2023-04-23T08:38:06.597Z,100615.02
2023-04-23T08:40:35.838Z,100610.69
2023-04-23T08:43:04.385Z,100609.35
2023-04-23T08:45:31.096Z,100605.88
2023-04-23T08:48:01.600Z,100606.83
2023-04-23T08:50:29.116Z,100609.65
2023-04-23T08:52:57.196Z,100609.83
2023-04-23T08:55:23.963Z,100605.88
2023-04-23T08:57:51.021Z,100602.19
2023-04-23T09:00:19.117Z,100599.59
2023-04-23T09:02:46.947Z,100597.17
2023-04-23T09:05:14.001Z,100596.08
2023-04-23T09:07:41.232Z,100592.33
2023-04-23T09:10:08.981Z,100589.17
2023-04-23T09:12:35.797Z,100588.58
2023-04-23T09:15:09.869Z,100588.34
2023-04-23T09:17:44.545Z,100591.52
2023-04-23T09:20:12.177Z,100592.27
2023-04-23T09:22:50.157Z,100590.63
2023-04-23T09:25:18.360Z,100591.05
2023-04-23T09:27:54.925Z,100587.53
2023-04-23T09:30:22.831Z,100588.11
2023-04-23T09:32:49.877Z,100588.02
2023-04-23T09:35:17.044Z,100584.04
2023-04-23T09:37:48.125Z,100579.60
2023-04-23T09:40:19.491Z,100577.11
2023-04-23T09:42:50.400Z,100576.46
2023-04-23T09:45:17.065Z,100576.80
2023-04-23T09:47:50.962Z,100573.80
2023-04-23T09:50:18.561Z,100573.55
2023-04-23T09:52:45.455Z,100575.07
2023-04-23T09:55:12.274Z,100570.65
2023-04-23T09:57:43.059Z,100572.83
2023-04-23T10:00:18.380Z,100569.92
2023-04-23T10:02:49.115Z,100567.60
2023-04-23T10:05:24.498Z,100567.12
2023-04-23T10:07:55.829Z,100567.89
2023-04-23T10:10:22.793Z,100564.91
2023-04-23T10:12:54.849Z,100563.45
2023-04-23T10:15:26.241Z,100561.89
2023-04-23T10:17:54.194Z,100561.97
2023-04-23T10:20:24.010Z,100560.95
2023-04-23T10:22:50.970Z,100561.81
2023-04-23T10:25:17.927Z,100558.91
2023-04-23T10:27:53.981Z,100558.61
2023-04-23T10:30:21.870Z,100555.40
2023-04-23T10:32:49.169Z,100553.54
2023-04-23T10:35:16.133Z,100553.77
2023-04-23T10:37:42.824Z,100550.38
2023-04-23T10:40:13.648Z,100548.95
2023-04-23T10:42:40.757Z,100548.25
2023-04-23T10:47:47.183Z,100545.23
2023-04-23T10:50:57.582Z,100544.48
2023-04-23T10:53:27.598Z,100542.02
2023-04-23T10:56:07.083Z,100545.05
2023-04-23T10:58:50.649Z,100541.58
2023-04-23T11:01:18.089Z,100538.12
2023-04-23T11:03:45.379Z,100538.56
2023-04-23T11:06:14.973Z,100538.41
2023-04-23T11:08:55.905Z,100538.08
2023-04-23T11:11:41.971Z,100534.33
2023-04-23T11:14:14.681Z,100534.70
2023-04-23T11:16:41.379Z,100536.55
2023-04-23T11:32:36.593Z,100532.55
2023-04-23T11:35:04.801Z,100529.89
2023-04-23T11:37:31.738Z,100529.92
2023-04-23T11:39:58.726Z,100528.39
2023-04-23T11:42:25.425Z,100527.58
2023-04-23T11:44:52.218Z,100526.70
2023-04-23T11:47:18.977Z,100524.73
2023-04-23T11:49:45.986Z,100527.37
2023-04-23T11:52:13.814Z,100524.64
2023-04-23T11:54:41.507Z,100525.20
2023-04-23T11:57:08.318Z,100521.54
2023-04-23T11:59:35.304Z,100519.14
2023-04-23T12:02:02.202Z,100518.89
2023-04-23T12:04:30.007Z,100517.06
2023-04-23T12:06:57.442Z,100515.39
2023-04-23T12:09:26.411Z,100517.84
2023-04-23T12:11:53.269Z,100517.09
2023-04-23T12:14:23.395Z,100515.32
2023-04-23T12:16:52.960Z,100515.54
2023-04-23T12:19:30.452Z,100511.98
2023-04-23T12:22:01.637Z,100509.91
2023-04-23T12:24:45.321Z,100508.55
2023-04-23T12:27:15.050Z,100509.38
2023-04-23T12:29:41.913Z,100511.61
2023-04-23T12:32:10.251Z,100512.08
2023-04-23T12:34:37.778Z,100513.23
2023-04-23T12:37:05.914Z,100513.27
2023-04-23T12:39:33.806Z,100512.42
2023-04-23T12:42:09.158Z,100512.30
2023-04-23T12:44:36.605Z,100513.15
2023-04-23T12:47:07.400Z,100508.09
2023-04-23T12:49:35.307Z,100504.82
2023-04-23T12:52:03.170Z,100505.02
2023-04-23T12:54:31.380Z,100501.09
2023-04-23T12:57:02.136Z,100501.20
2023-04-23T12:59:29.431Z,100498.20
2023-04-23T13:01:56.309Z,100496.30
2023-04-23T13:04:23.094Z,100498.50
2023-04-23T13:06:50.789Z,100495.89
2023-04-23T13:09:17.562Z,100497.50
2023-04-23T13:11:46.415Z,100495.83
2023-04-23T13:14:13.196Z,100498.63
2023-04-23T13:16:40.332Z,100495.96
2023-04-23T13:19:07.522Z,100493.44
2023-04-23T13:21:34.549Z,100497.70
2023-04-23T13:24:01.670Z,100496.33
2023-04-23T13:26:31.406Z,100494.13
2023-04-23T13:28:58.967Z,100492.84
2023-04-23T13:31:25.788Z,100495.85
2023-04-23T13:33:52.690Z,100495.63
2023-04-23T13:36:19.365Z,100496.77
2023-04-23T13:38:46.352Z,100496.47
2023-04-23T13:41:13.242Z,100490.76
2023-04-23T13:43:39.997Z,100490.15
2023-04-23T13:46:06.726Z,100488.61
2023-04-23T13:48:33.848Z,100489.35
2023-04-23T13:51:00.849Z,100492.29
2023-04-23T13:53:27.780Z,100491.84
2023-04-23T13:55:55.373Z,100488.91
2023-04-23T13:58:22.876Z,100490.02
2023-04-23T14:00:49.619Z,100487.34
2023-04-23T14:03:16.657Z,100485.77
2023-04-23T14:05:43.673Z,100487.09
2023-04-23T14:08:10.595Z,100486.27
2023-04-23T14:10:37.293Z,100482.14
2023-04-23T14:13:04.227Z,100483.10
2023-04-23T14:15:31.047Z,100480.42
2023-04-23T14:17:59.081Z,100479.62
2023-04-23T14:20:25.882Z,100478.60
2023-04-23T14:23:01.031Z,100477.30
2023-04-23T14:25:40.659Z,100473.98
2023-04-23T14:28:27.577Z,100471.96
2023-04-23T14:30:54.957Z,100469.51
2023-04-23T14:33:21.821Z,100465.99
2023-04-23T14:35:48.735Z,100463.24
2023-04-23T14:38:15.492Z,100461.45
2023-04-23T14:40:42.137Z,100461.69
2023-04-23T14:45:41.073Z,100462.02
2023-04-23T14:48:07.739Z,100464.91
2023-04-23T14:50:35.140Z,100461.60
2023-04-23T14:53:06.264Z,100463.40
2023-04-23T14:55:33.434Z,100459.89
2023-04-23T14:58:00.930Z,100457.62
2023-04-23T15:00:27.920Z,100456.60
2023-04-23T15:02:54.774Z,100456.58
2023-04-23T15:05:21.563Z,100455.42
2023-04-23T15:07:48.227Z,100455.90
2023-04-23T15:10:14.940Z,100452.66
2023-04-23T15:12:52.201Z,100451.33
2023-04-23T15:15:48.872Z,100453.19
2023-04-23T15:18:16.015Z,100451.48
2023-04-23T15:20:42.845Z,100451.07
2023-04-23T15:23:09.870Z,100452.55
2023-04-23T15:25:36.923Z,100453.77
2023-04-23T15:28:03.957Z,100451.33
2023-04-23T15:30:30.813Z,100450.40
2023-04-23T15:32:57.597Z,100445.45
2023-04-23T15:35:24.967Z,100444.58
2023-04-23T15:37:51.808Z,100447.39
2023-04-23T15:40:18.440Z,100446.89
2023-04-23T15:42:45.268Z,100441.67
2023-04-23T15:45:12.264Z,100441.59
2023-04-23T15:47:39.093Z,100447.05
2023-04-23T15:50:06.666Z,100444.27
2023-04-23T15:52:33.676Z,100444.64
2023-04-23T15:55:00.556Z,100445.48
2023-04-23T15:57:27.239Z,100443.65
2023-04-23T15:59:55.084Z,100441.52
2023-04-23T16:02:22.060Z,100439.05
2023-04-23T16:04:50.610Z,100441.24
2023-04-23T16:07:17.261Z,100443.17
2023-04-23T16:09:44.382Z,100441.27
2023-04-23T16:12:12.108Z,100442.80
2023-04-23T16:14:39.539Z,100443.91
2023-04-23T16:17:06.303Z,100442.30
2023-04-23T16:19:33.228Z,100444.69
2023-04-23T16:22:00.047Z,100440.71
2023-04-23T16:24:26.864Z,100442.85
2023-04-23T16:26:53.555Z,100449.87
2023-04-23T16:29:22.513Z,100447.55
2023-04-23T16:31:50.065Z,100447.95
2023-04-23T16:34:16.982Z,100448.05
2023-04-23T16:36:43.846Z,100443.17
2023-04-23T16:39:10.644Z,100442.47
2023-04-23T16:41:37.354Z,100443.88
2023-04-23T16:44:04.129Z,100443.16
2023-04-23T16:46:31.484Z,100442.08
2023-04-23T16:48:58.685Z,100445.32
2023-04-23T16:51:26.240Z,100443.80
2023-04-23T16:53:52.908Z,100443.86
2023-04-23T16:56:20.186Z,100447.45
2023-04-23T16:58:46.888Z,100448.05
2023-04-23T17:01:14.280Z,100450.66
2023-04-23T17:03:41.140Z,100446.70
2023-04-23T17:06:27.521Z,100452.85
2023-04-23T17:08:54.764Z,100449.52
2023-04-23T17:11:22.341Z,100452.14
2023-04-23T17:13:49.072Z,100459.56
2023-04-23T17:16:15.915Z,100459.44
2023-04-23T17:18:42.703Z,100463.55
2023-04-23T17:21:09.930Z,100465.65
2023-04-23T17:23:36.770Z,100465.86
2023-04-23T17:26:03.435Z,100467.64
2023-04-23T17:28:30.709Z,100470.07
2023-04-23T17:30:57.529Z,100467.90
2023-04-23T17:33:24.565Z,100469.58
2023-04-23T17:35:51.994Z,100471.48
2023-04-23T17:38:20.313Z,100470.57
2023-04-23T17:40:47.796Z,100471.89
2023-04-23T17:43:14.954Z,100470.41
2023-04-23T17:45:41.876Z,100479.67
2023-04-23T17:48:08.780Z,100480.98
2023-04-23T17:50:35.851Z,100484.34
2023-04-23T17:53:03.287Z,100488.91
2023-04-23T17:55:32.247Z,100488.31
2023-04-23T17:58:05.912Z,100489.77
2023-04-23T18:00:38.066Z,100493.09
2023-04-23T18:03:05.736Z,100499.73
2023-04-23T18:05:33.737Z,100499.59
2023-04-23T18:08:00.721Z,100500.45
2023-04-23T18:10:28.328Z,100500.47
2023-04-23T18:12:55.390Z,100506.00
2023-04-23T18:15:22.109Z,100509.50
2023-04-23T18:17:49.640Z,100509.12
2023-04-23T18:20:16.315Z,100507.05
2023-04-23T18:22:43.633Z,100508.71
2023-04-23T18:25:11.107Z,100506.94
2023-04-23T18:27:38.518Z,100503.31
2023-04-23T18:30:07.503Z,100504.48
2023-04-23T18:32:38.242Z,100500.41
2023-04-23T18:35:07.753Z,100499.41
2023-04-23T18:37:42.560Z,100500.48
2023-04-23T18:40:10.820Z,100503.86
2023-04-23T18:42:37.960Z,100503.91
2023-04-23T18:45:05.065Z,100506.55
2023-04-23T18:47:57.672Z,100505.69
2023-04-23T18:50:27.392Z,100504.66
2023-04-23T18:52:54.939Z,100508.27
2023-04-23T18:55:21.564Z,100505.23
2023-04-23T18:57:48.308Z,100510.73
2023-04-23T19:00:15.274Z,100507.18
2023-04-23T19:02:42.040Z,100506.59
2023-04-23T19:05:09.337Z,100502.52
2023-04-23T19:07:39.630Z,100502.73
2023-04-23T19:10:07.273Z,100503.98
2023-04-23T19:12:34.103Z,100502.88
2023-04-23T19:15:00.714Z,100502.85
2023-04-23T19:17:27.438Z,100502.90
2023-04-23T19:19:54.113Z,100507.70
2023-04-23T19:22:24.346Z,100502.30
2023-04-23T19:24:51.066Z,100501.08
2023-04-23T19:27:17.671Z,100499.88
2023-04-23T19:29:45.837Z,100503.20
2023-04-23T19:32:12.724Z,100503.80
2023-04-23T19:34:39.961Z,100502.41
2023-04-23T19:37:06.756Z,100498.51
2023-04-23T19:39:34.043Z,100503.98
2023-04-23T19:42:01.996Z,100503.30
2023-04-23T19:44:28.997Z,100503.90
2023-04-23T19:46:55.930Z,100505.30
2023-04-23T19:49:22.590Z,100506.38
2023-04-23T19:51:53.711Z,100502.91
2023-04-23T19:54:21.449Z,100501.95
2023-04-23T19:56:49.572Z,100503.27
2023-04-23T19:59:20.225Z,100500.37
2023-04-23T20:01:47.631Z,100499.80
2023-04-23T20:04:14.556Z,100500.48
2023-04-23T20:06:41.364Z,100500.34
2023-04-23T20:09:17.151Z,100495.85
2023-04-23T20:11:44.786Z,100494.94
2023-04-23T20:14:14.271Z,100489.85
2023-04-23T20:16:41.106Z,100489.42
2023-04-23T20:19:10.777Z,100491.70
2023-04-23T20:21:38.267Z,100487.16
2023-04-23T20:24:11.678Z,100486.98
2023-04-23T20:26:39.235Z,100485.70
2023-04-23T20:29:06.115Z,100487.10
2023-04-23T20:31:33.439Z,100487.20
2023-04-23T20:34:00.432Z,100492.39
2023-04-23T20:36:32.609Z,100495.63
2023-04-23T20:39:00.423Z,100496.80
2023-04-23T20:41:30.651Z,100495.58
2023-04-23T20:43:57.939Z,100496.16
2023-04-23T20:46:25.298Z,100492.65
2023-04-23T20:48:54.961Z,100493.27
2023-04-23T20:51:22.587Z,100492.21
2023-04-23T20:53:50.488Z,100492.10
2023-04-23T20:56:17.632Z,100495.52
2023-04-23T20:58:44.337Z,100495.41
2023-04-23T21:01:11.159Z,100494.14
2023-04-23T21:03:38.456Z,100494.91
2023-04-23T21:06:06.204Z,100499.46
2023-04-23T21:08:33.357Z,100502.88
2023-04-23T21:11:00.073Z,100503.16
2023-04-23T21:13:26.738Z,100506.58
2023-04-23T21:15:53.573Z,100508.48
2023-04-23T21:18:20.267Z,100507.80
2023-04-23T21:20:46.951Z,100508.20
2023-04-23T21:23:13.839Z,100506.33
2023-04-23T21:25:40.513Z,100507.33
2023-04-23T21:28:07.213Z,100510.14
2023-04-23T21:30:50.298Z,100511.71
2023-04-23T21:33:18.436Z,100510.11
2023-04-23T21:35:45.186Z,100514.48
2023-04-23T21:38:11.907Z,100514.36
2023-04-23T21:40:38.940Z,100510.86
2023-04-23T21:43:06.189Z,100510.42
2023-04-23T21:45:33.266Z,100509.61
2023-04-23T21:48:00.080Z,100508.75
2023-04-23T21:50:27.634Z,100504.70
2023-04-23T21:52:57.864Z,100505.77
2023-04-23T21:55:25.655Z,100506.34
2023-04-23T21:57:52.770Z,100505.15
2023-04-23T22:00:20.517Z,100505.10
2023-04-23T22:02:47.366Z,100502.98
2023-04-23T22:05:21.119Z,100502.35
2023-04-23T22:07:48.687Z,100501.44
2023-04-23T22:10:16.019Z,100498.34
2023-04-23T22:12:42.976Z,100500.95
2023-04-23T22:15:12.432Z,100500.25
2023-04-23T22:17:39.391Z,100499.48
2023-04-23T22:20:07.039Z,100501.02
2023-04-23T22:22:34.265Z,100498.43
2023-04-23T22:25:01.609Z,100500.13
2023-04-23T22:27:28.502Z,100499.62
2023-04-23T22:29:55.188Z,100495.64
2023-04-23T22:32:21.815Z,100497.53
2023-04-23T22:34:48.509Z,100495.80
2023-04-23T22:37:15.206Z,100491.03
2023-04-23T22:39:42.124Z,100488.66
2023-04-23T22:42:09.142Z,100485.11
2023-04-23T22:44:37.153Z,100485.14
2023-04-23T22:47:04.690Z,100485.31
2023-04-23T22:49:32.404Z,100482.14
2023-04-23T22:51:59.180Z,100483.41
2023-04-23T22:54:26.611Z,100487.24
2023-04-23T22:56:53.401Z,100488.14
2023-04-23T22:59:20.544Z,100486.91
2023-04-23T23:01:47.446Z,100484.09
2023-04-23T23:04:14.229Z,100481.60
2023-04-23T23:06:42.436Z,100479.36
2023-04-23T23:09:09.668Z,100476.22
2023-04-23T23:11:36.364Z,100473.64
2023-04-23T23:14:03.734Z,100475.30
2023-04-23T23:16:30.516Z,100476.84
2023-04-23T23:18:57.610Z,100473.27
2023-04-23T23:21:24.449Z,100466.84
2023-04-23T23:23:51.314Z,100472.02
2023-04-23T23:26:18.106Z,100468.60
2023-04-23T23:28:44.787Z,100468.95
2023-04-23T23:31:11.669Z,100469.67
2023-04-23T23:33:39.068Z,100470.42
2023-04-23T23:36:08.018Z,100463.83
2023-04-23T23:50:08.888Z,100456.66
2023-04-23T23:52:35.706Z,100450.90
2023-04-23T23:55:02.637Z,100450.54
2023-04-23T23:57:29.505Z,100450.94
2023-04-23T23:59:57.085Z,100448.73
